sensor_id;sensor_type;location;lat;lon;timestamp;P1;durP1;ratioP1;P2;durP2;ratioP2
72037;SDS011;59900;50.788;12.904;2022-08-23T00:01:54;6.38;;;3.45;;
72037;SDS011;59900;50.788;12.904;2022-08-23T00:04:40;5.30;;;3.30;;
72037;SDS011;59900;50.788;12.904;2022-08-23T00:07:07;7.35;;;3.30;;
72037;SDS011;59900;50.788;12.904;2022-08-23T00:09:35;6.53;;;3.30;;
72037;SDS011;59900;50.788;12.904;2022-08-23T00:14:37;6.85;;;3.28;;
72037;SDS011;59900;50.788;12.904;2022-08-23T00:17:04;7.25;;;3.60;;
72037;SDS011;59900;50.788;12.904;2022-08-23T00:19:30;7.40;;;3.30;;
72037;SDS011;59900;50.788;12.904;2022-08-23T00:21:56;6.13;;;3.50;;
72037;SDS011;59900;50.788;12.904;2022-08-23T00:24:22;6.53;;;3.40;;
72037;SDS011;59900;50.788;12.904;2022-08-23T00:26:52;7.05;;;3.45;;
72037;SDS011;59900;50.788;12.904;2022-08-23T00:29:21;7.18;;;3.72;;
72037;SDS011;59900;50.788;12.904;2022-08-23T00:31:48;7.32;;;3.53;;
72037;SDS011;59900;50.788;12.904;2022-08-23T00:34:13;6.37;;;3.47;;
72037;SDS011;59900;50.788;12.904;2022-08-23T00:36:39;9.00;;;3.93;;
72037;SDS011;59900;50.788;12.904;2022-08-23T00:39:05;7.22;;;3.92;;
72037;SDS011;59900;50.788;12.904;2022-08-23T00:41:31;8.57;;;3.67;;
72037;SDS011;59900;50.788;12.904;2022-08-23T00:43:58;6.82;;;3.50;;
72037;SDS011;59900;50.788;12.904;2022-08-23T00:46:43;6.03;;;3.40;;
72037;SDS011;59900;50.788;12.904;2022-08-23T00:49:31;6.95;;;3.63;;
72037;SDS011;59900;50.788;12.904;2022-08-23T00:54:40;6.13;;;3.07;;
72037;SDS011;59900;50.788;12.904;2022-08-23T00:57:08;6.82;;;3.50;;
72037;SDS011;59900;50.788;12.904;2022-08-23T00:59:37;7.65;;;3.45;;
72037;SDS011;59900;50.788;12.904;2022-08-23T01:02:03;6.32;;;3.40;;
72037;SDS011;59900;50.788;12.904;2022-08-23T01:04:30;8.15;;;3.40;;
72037;SDS011;59900;50.788;12.904;2022-08-23T01:07:02;7.47;;;3.30;;
72037;SDS011;59900;50.788;12.904;2022-08-23T01:09:31;6.70;;;3.22;;
72037;SDS011;59900;50.788;12.904;2022-08-23T01:12:06;6.73;;;3.57;;
72037;SDS011;59900;50.788;12.904;2022-08-23T01:14:49;8.57;;;3.95;;
72037;SDS011;59900;50.788;12.904;2022-08-23T01:17:22;6.95;;;4.00;;
72037;SDS011;59900;50.788;12.904;2022-08-23T01:19:52;8.00;;;3.92;;
72037;SDS011;59900;50.788;12.904;2022-08-23T01:22:26;6.97;;;4.28;;
72037;SDS011;59900;50.788;12.904;2022-08-23T01:24:58;6.20;;;4.00;;
72037;SDS011;59900;50.788;12.904;2022-08-23T01:27:25;7.75;;;4.80;;
72037;SDS011;59900;50.788;12.904;2022-08-23T01:29:51;9.32;;;4.07;;
72037;SDS011;59900;50.788;12.904;2022-08-23T01:32:17;7.77;;;4.17;;
72037;SDS011;59900;50.788;12.904;2022-08-23T01:34:43;10.90;;;4.70;;
72037;SDS011;59900;50.788;12.904;2022-08-23T01:37:09;8.32;;;4.57;;
72037;SDS011;59900;50.788;12.904;2022-08-23T01:39:34;11.40;;;4.67;;
72037;SDS011;59900;50.788;12.904;2022-08-23T01:41:59;8.80;;;5.00;;
72037;SDS011;59900;50.788;12.904;2022-08-23T01:44:25;9.30;;;4.60;;
72037;SDS011;59900;50.788;12.904;2022-08-23T01:46:51;9.25;;;4.45;;
72037;SDS011;59900;50.788;12.904;2022-08-23T01:49:16;10.03;;;4.80;;
72037;SDS011;59900;50.788;12.904;2022-08-23T01:51:42;9.68;;;5.00;;
72037;SDS011;59900;50.788;12.904;2022-08-23T01:54:07;11.43;;;4.53;;
72037;SDS011;59900;50.788;12.904;2022-08-23T01:56:33;8.20;;;4.60;;
72037;SDS011;59900;50.788;12.904;2022-08-23T01:58:59;10.48;;;5.07;;
72037;SDS011;59900;50.788;12.904;2022-08-23T02:01:25;9.70;;;4.70;;
72037;SDS011;59900;50.788;12.904;2022-08-23T02:03:50;9.37;;;4.97;;
72037;SDS011;59900;50.788;12.904;2022-08-23T02:06:15;10.90;;;5.68;;
72037;SDS011;59900;50.788;12.904;2022-08-23T02:08:41;7.83;;;4.70;;
72037;SDS011;59900;50.788;12.904;2022-08-23T02:11:24;10.55;;;5.15;;
72037;SDS011;59900;50.788;12.904;2022-08-23T02:13:52;9.03;;;5.37;;
72037;SDS011;59900;50.788;12.904;2022-08-23T02:16:24;10.27;;;4.82;;
72037;SDS011;59900;50.788;12.904;2022-08-23T02:18:54;12.82;;;5.47;;
72037;SDS011;59900;50.788;12.904;2022-08-23T02:21:20;9.65;;;5.53;;
72037;SDS011;59900;50.788;12.904;2022-08-23T02:23:46;20.70;;;10.13;;
72037;SDS011;59900;50.788;12.904;2022-08-23T02:26:12;18.67;;;9.50;;
72037;SDS011;59900;50.788;12.904;2022-08-23T02:28:38;12.32;;;5.70;;
72037;SDS011;59900;50.788;12.904;2022-08-23T02:31:04;9.07;;;6.00;;
72037;SDS011;59900;50.788;12.904;2022-08-23T02:33:30;9.27;;;5.60;;
72037;SDS011;59900;50.788;12.904;2022-08-23T02:35:55;10.50;;;5.10;;
72037;SDS011;59900;50.788;12.904;2022-08-23T02:38:20;8.83;;;5.30;;
72037;SDS011;59900;50.788;12.904;2022-08-23T02:40:45;10.97;;;5.43;;
72037;SDS011;59900;50.788;12.904;2022-08-23T02:43:12;7.38;;;4.90;;
72037;SDS011;59900;50.788;12.904;2022-08-23T02:45:38;8.95;;;4.68;;
72037;SDS011;59900;50.788;12.904;2022-08-23T02:48:04;9.60;;;5.07;;
72037;SDS011;59900;50.788;12.904;2022-08-23T02:50:30;11.23;;;5.40;;
72037;SDS011;59900;50.788;12.904;2022-08-23T02:52:56;10.35;;;4.82;;
72037;SDS011;59900;50.788;12.904;2022-08-23T02:55:22;8.98;;;5.28;;
72037;SDS011;59900;50.788;12.904;2022-08-23T02:57:47;9.63;;;5.17;;
72037;SDS011;59900;50.788;12.904;2022-08-23T03:00:13;7.80;;;5.03;;
72037;SDS011;59900;50.788;12.904;2022-08-23T03:02:40;11.05;;;5.30;;
72037;SDS011;59900;50.788;12.904;2022-08-23T03:05:06;10.98;;;5.18;;
72037;SDS011;59900;50.788;12.904;2022-08-23T03:07:33;9.15;;;5.20;;
72037;SDS011;59900;50.788;12.904;2022-08-23T03:09:58;12.97;;;5.10;;
72037;SDS011;59900;50.788;12.904;2022-08-23T03:12:24;8.90;;;5.17;;
72037;SDS011;59900;50.788;12.904;2022-08-23T03:14:50;13.13;;;5.10;;
72037;SDS011;59900;50.788;12.904;2022-08-23T03:17:16;10.20;;;4.73;;
72037;SDS011;59900;50.788;12.904;2022-08-23T03:19:42;11.37;;;4.60;;
72037;SDS011;59900;50.788;12.904;2022-08-23T03:22:07;11.63;;;4.70;;
72037;SDS011;59900;50.788;12.904;2022-08-23T03:24:32;9.20;;;5.70;;
72037;SDS011;59900;50.788;12.904;2022-08-23T03:26:57;9.73;;;5.20;;
72037;SDS011;59900;50.788;12.904;2022-08-23T03:29:23;8.60;;;4.87;;
72037;SDS011;59900;50.788;12.904;2022-08-23T03:31:49;10.18;;;5.13;;
72037;SDS011;59900;50.788;12.904;2022-08-23T03:34:15;15.43;;;5.37;;
72037;SDS011;59900;50.788;12.904;2022-08-23T03:36:40;11.23;;;5.18;;
72037;SDS011;59900;50.788;12.904;2022-08-23T03:39:06;9.00;;;4.60;;
72037;SDS011;59900;50.788;12.904;2022-08-23T03:41:31;10.00;;;4.90;;
72037;SDS011;59900;50.788;12.904;2022-08-23T03:43:56;13.23;;;5.17;;
72037;SDS011;59900;50.788;12.904;2022-08-23T03:46:22;9.03;;;5.00;;
72037;SDS011;59900;50.788;12.904;2022-08-23T03:48:51;10.37;;;4.53;;
72037;SDS011;59900;50.788;12.904;2022-08-23T03:51:17;7.53;;;4.72;;
72037;SDS011;59900;50.788;12.904;2022-08-23T03:53:44;11.30;;;5.13;;
72037;SDS011;59900;50.788;12.904;2022-08-23T03:56:12;9.18;;;4.78;;
72037;SDS011;59900;50.788;12.904;2022-08-23T03:59:08;9.57;;;4.68;;
72037;SDS011;59900;50.788;12.904;2022-08-23T04:01:37;7.83;;;4.67;;
72037;SDS011;59900;50.788;12.904;2022-08-23T04:04:02;9.77;;;4.50;;
72037;SDS011;59900;50.788;12.904;2022-08-23T04:06:28;8.37;;;5.43;;
72037;SDS011;59900;50.788;12.904;2022-08-23T04:08:54;11.07;;;5.37;;
72037;SDS011;59900;50.788;12.904;2022-08-23T04:11:20;8.32;;;4.60;;
72037;SDS011;59900;50.788;12.904;2022-08-23T04:13:46;8.43;;;5.13;;
72037;SDS011;59900;50.788;12.904;2022-08-23T04:16:11;12.07;;;5.13;;
72037;SDS011;59900;50.788;12.904;2022-08-23T04:18:37;12.23;;;5.45;;
72037;SDS011;59900;50.788;12.904;2022-08-23T04:21:04;8.73;;;4.70;;
72037;SDS011;59900;50.788;12.904;2022-08-23T04:23:34;10.00;;;5.40;;
72037;SDS011;59900;50.788;12.904;2022-08-23T04:26:00;11.88;;;5.18;;
72037;SDS011;59900;50.788;12.904;2022-08-23T04:28:25;9.80;;;5.03;;
72037;SDS011;59900;50.788;12.904;2022-08-23T04:30:50;9.90;;;5.00;;
72037;SDS011;59900;50.788;12.904;2022-08-23T04:33:16;7.97;;;4.97;;
72037;SDS011;59900;50.788;12.904;2022-08-23T04:35:42;7.70;;;4.65;;
72037;SDS011;59900;50.788;12.904;2022-08-23T04:38:08;7.95;;;5.03;;
72037;SDS011;59900;50.788;12.904;2022-08-23T04:40:34;8.57;;;4.77;;
72037;SDS011;59900;50.788;12.904;2022-08-23T04:43:18;11.13;;;5.22;;
72037;SDS011;59900;50.788;12.904;2022-08-23T04:45:43;9.87;;;5.60;;
72037;SDS011;59900;50.788;12.904;2022-08-23T04:48:09;11.18;;;5.22;;
72037;SDS011;59900;50.788;12.904;2022-08-23T04:50:34;9.77;;;4.80;;
72037;SDS011;59900;50.788;12.904;2022-08-23T04:53:00;15.75;;;5.70;;
72037;SDS011;59900;50.788;12.904;2022-08-23T04:55:25;8.37;;;5.57;;
72037;SDS011;59900;50.788;12.904;2022-08-23T04:57:50;9.33;;;4.90;;
72037;SDS011;59900;50.788;12.904;2022-08-23T05:00:16;9.10;;;5.07;;
72037;SDS011;59900;50.788;12.904;2022-08-23T05:02:41;10.60;;;5.23;;
72037;SDS011;59900;50.788;12.904;2022-08-23T05:05:07;11.40;;;5.00;;
72037;SDS011;59900;50.788;12.904;2022-08-23T05:07:34;11.45;;;5.30;;
72037;SDS011;59900;50.788;12.904;2022-08-23T05:10:01;9.00;;;5.32;;
72037;SDS011;59900;50.788;12.904;2022-08-23T05:12:27;10.10;;;5.07;;
72037;SDS011;59900;50.788;12.904;2022-08-23T05:14:53;10.43;;;5.27;;
72037;SDS011;59900;50.788;12.904;2022-08-23T05:17:18;10.73;;;5.37;;
72037;SDS011;59900;50.788;12.904;2022-08-23T05:19:44;16.33;;;5.93;;
72037;SDS011;59900;50.788;12.904;2022-08-23T05:22:09;9.97;;;5.77;;
72037;SDS011;59900;50.788;12.904;2022-08-23T05:24:34;12.70;;;5.43;;
72037;SDS011;59900;50.788;12.904;2022-08-23T05:26:59;11.80;;;5.83;;
72037;SDS011;59900;50.788;12.904;2022-08-23T05:29:25;17.57;;;5.53;;
72037;SDS011;59900;50.788;12.904;2022-08-23T05:31:50;13.00;;;5.67;;
72037;SDS011;59900;50.788;12.904;2022-08-23T05:34:15;12.10;;;5.30;;
72037;SDS011;59900;50.788;12.904;2022-08-23T05:36:41;9.73;;;6.03;;
72037;SDS011;59900;50.788;12.904;2022-08-23T05:39:06;10.50;;;6.07;;
72037;SDS011;59900;50.788;12.904;2022-08-23T05:41:32;11.77;;;5.93;;
72037;SDS011;59900;50.788;12.904;2022-08-23T05:43:57;10.73;;;5.50;;
72037;SDS011;59900;50.788;12.904;2022-08-23T05:46:23;10.30;;;6.00;;
72037;SDS011;59900;50.788;12.904;2022-08-23T05:48:49;12.90;;;6.30;;
72037;SDS011;59900;50.788;12.904;2022-08-23T05:53:43;14.10;;;5.77;;
72037;SDS011;59900;50.788;12.904;2022-08-23T05:56:10;10.75;;;6.30;;
72037;SDS011;59900;50.788;12.904;2022-08-23T05:58:37;10.05;;;6.07;;
72037;SDS011;59900;50.788;12.904;2022-08-23T06:01:02;11.63;;;6.23;;
72037;SDS011;59900;50.788;12.904;2022-08-23T06:03:28;13.02;;;6.55;;
72037;SDS011;59900;50.788;12.904;2022-08-23T06:05:59;11.63;;;6.80;;
72037;SDS011;59900;50.788;12.904;2022-08-23T06:08:25;13.70;;;7.07;;
72037;SDS011;59900;50.788;12.904;2022-08-23T06:11:02;11.93;;;7.10;;
72037;SDS011;59900;50.788;12.904;2022-08-23T06:13:29;12.07;;;6.50;;
72037;SDS011;59900;50.788;12.904;2022-08-23T06:15:55;12.15;;;6.32;;
72037;SDS011;59900;50.788;12.904;2022-08-23T06:18:21;11.67;;;6.53;;
72037;SDS011;59900;50.788;12.904;2022-08-23T06:20:47;13.60;;;6.75;;
72037;SDS011;59900;50.788;12.904;2022-08-23T06:23:13;11.48;;;7.13;;
72037;SDS011;59900;50.788;12.904;2022-08-23T06:25:39;14.50;;;7.00;;
72037;SDS011;59900;50.788;12.904;2022-08-23T06:28:04;13.23;;;7.03;;
72037;SDS011;59900;50.788;12.904;2022-08-23T06:30:29;13.67;;;6.50;;
72037;SDS011;59900;50.788;12.904;2022-08-23T06:32:54;13.50;;;7.33;;
72037;SDS011;59900;50.788;12.904;2022-08-23T06:35:20;12.60;;;6.97;;
72037;SDS011;59900;50.788;12.904;2022-08-23T06:37:45;12.83;;;7.70;;
72037;SDS011;59900;50.788;12.904;2022-08-23T06:40:11;12.77;;;7.00;;
72037;SDS011;59900;50.788;12.904;2022-08-23T06:42:36;13.77;;;7.17;;
72037;SDS011;59900;50.788;12.904;2022-08-23T06:45:02;12.23;;;6.93;;
72037;SDS011;59900;50.788;12.904;2022-08-23T06:47:28;10.57;;;6.85;;
72037;SDS011;59900;50.788;12.904;2022-08-23T06:49:53;15.13;;;7.80;;
72037;SDS011;59900;50.788;12.904;2022-08-23T06:52:18;14.43;;;6.63;;
72037;SDS011;59900;50.788;12.904;2022-08-23T06:54:43;15.27;;;7.22;;
72037;SDS011;59900;50.788;12.904;2022-08-23T06:57:10;15.37;;;7.83;;
72037;SDS011;59900;50.788;12.904;2022-08-23T06:59:36;12.57;;;7.80;;
72037;SDS011;59900;50.788;12.904;2022-08-23T07:02:03;13.90;;;7.10;;
72037;SDS011;59900;50.788;12.904;2022-08-23T07:04:31;12.65;;;7.47;;
72037;SDS011;59900;50.788;12.904;2022-08-23T07:06:59;13.13;;;7.88;;
72037;SDS011;59900;50.788;12.904;2022-08-23T07:09:28;13.57;;;6.75;;
72037;SDS011;59900;50.788;12.904;2022-08-23T07:11:54;11.32;;;7.07;;
72037;SDS011;59900;50.788;12.904;2022-08-23T07:14:20;10.93;;;6.80;;
72037;SDS011;59900;50.788;12.904;2022-08-23T07:16:51;14.65;;;7.57;;
72037;SDS011;59900;50.788;12.904;2022-08-23T07:19:20;11.93;;;7.47;;
72037;SDS011;59900;50.788;12.904;2022-08-23T07:21:48;13.35;;;7.32;;
72037;SDS011;59900;50.788;12.904;2022-08-23T07:24:14;13.60;;;7.13;;
72037;SDS011;59900;50.788;12.904;2022-08-23T07:26:40;13.20;;;7.55;;
72037;SDS011;59900;50.788;12.904;2022-08-23T07:29:07;15.73;;;7.47;;
72037;SDS011;59900;50.788;12.904;2022-08-23T07:31:37;15.88;;;7.22;;
72037;SDS011;59900;50.788;12.904;2022-08-23T07:34:05;12.97;;;7.10;;
72037;SDS011;59900;50.788;12.904;2022-08-23T07:36:31;12.25;;;6.95;;
72037;SDS011;59900;50.788;12.904;2022-08-23T07:38:57;13.75;;;7.03;;
72037;SDS011;59900;50.788;12.904;2022-08-23T07:41:25;11.02;;;7.03;;
72037;SDS011;59900;50.788;12.904;2022-08-23T07:43:53;14.73;;;6.90;;
72037;SDS011;59900;50.788;12.904;2022-08-23T07:46:19;12.07;;;6.50;;
72037;SDS011;59900;50.788;12.904;2022-08-23T07:48:45;11.00;;;6.17;;
72037;SDS011;59900;50.788;12.904;2022-08-23T07:51:11;11.18;;;6.60;;
72037;SDS011;59900;50.788;12.904;2022-08-23T07:53:38;12.05;;;5.97;;
72037;SDS011;59900;50.788;12.904;2022-08-23T07:56:04;11.43;;;6.50;;
72037;SDS011;59900;50.788;12.904;2022-08-23T07:58:34;16.08;;;9.18;;
72037;SDS011;59900;50.788;12.904;2022-08-23T08:03:36;9.60;;;5.10;;
72037;SDS011;59900;50.788;12.904;2022-08-23T08:06:09;13.23;;;7.30;;
72037;SDS011;59900;50.788;12.904;2022-08-23T08:08:36;10.02;;;5.50;;
72037;SDS011;59900;50.788;12.904;2022-08-23T08:11:02;12.50;;;5.13;;
72037;SDS011;59900;50.788;12.904;2022-08-23T08:13:27;8.33;;;4.77;;
72037;SDS011;59900;50.788;12.904;2022-08-23T08:15:53;9.47;;;5.30;;
72037;SDS011;59900;50.788;12.904;2022-08-23T08:18:19;10.60;;;5.28;;
72037;SDS011;59900;50.788;12.904;2022-08-23T08:20:44;9.17;;;5.00;;
72037;SDS011;59900;50.788;12.904;2022-08-23T08:23:09;10.00;;;5.40;;
72037;SDS011;59900;50.788;12.904;2022-08-23T08:25:34;10.40;;;5.97;;
72037;SDS011;59900;50.788;12.904;2022-08-23T08:28:00;10.90;;;5.40;;
72037;SDS011;59900;50.788;12.904;2022-08-23T08:30:25;9.70;;;5.72;;
72037;SDS011;59900;50.788;12.904;2022-08-23T08:32:51;9.83;;;5.67;;
72037;SDS011;59900;50.788;12.904;2022-08-23T08:35:16;10.37;;;6.20;;
72037;SDS011;59900;50.788;12.904;2022-08-23T08:37:41;11.80;;;5.97;;
72037;SDS011;59900;50.788;12.904;2022-08-23T08:40:07;11.03;;;5.70;;
72037;SDS011;59900;50.788;12.904;2022-08-23T08:42:45;9.68;;;4.78;;
72037;SDS011;59900;50.788;12.904;2022-08-23T08:45:24;8.73;;;5.38;;
72037;SDS011;59900;50.788;12.904;2022-08-23T08:48:07;11.77;;;4.93;;
72037;SDS011;59900;50.788;12.904;2022-08-23T08:53:30;11.23;;;6.00;;
72037;SDS011;59900;50.788;12.904;2022-08-23T08:56:03;11.88;;;5.50;;
72037;SDS011;59900;50.788;12.904;2022-08-23T08:58:44;10.52;;;5.75;;
72037;SDS011;59900;50.788;12.904;2022-08-23T09:01:15;8.77;;;5.30;;
72037;SDS011;59900;50.788;12.904;2022-08-23T09:03:41;10.53;;;5.40;;
72037;SDS011;59900;50.788;12.904;2022-08-23T09:06:15;9.65;;;4.70;;
72037;SDS011;59900;50.788;12.904;2022-08-23T09:08:50;9.60;;;4.70;;
72037;SDS011;59900;50.788;12.904;2022-08-23T09:11:50;7.80;;;4.70;;
72037;SDS011;59900;50.788;12.904;2022-08-23T09:17:14;12.20;;;5.07;;
72037;SDS011;59900;50.788;12.904;2022-08-23T09:19:44;11.90;;;4.00;;
72037;SDS011;59900;50.788;12.904;2022-08-23T09:22:15;10.25;;;4.28;;
72037;SDS011;59900;50.788;12.904;2022-08-23T09:24:45;13.07;;;4.20;;
72037;SDS011;59900;50.788;12.904;2022-08-23T09:27:11;10.03;;;4.03;;
72037;SDS011;59900;50.788;12.904;2022-08-23T09:29:37;8.20;;;4.67;;
72037;SDS011;59900;50.788;12.904;2022-08-23T09:32:05;9.82;;;4.97;;
72037;SDS011;59900;50.788;12.904;2022-08-23T09:34:49;7.00;;;3.93;;
72037;SDS011;59900;50.788;12.904;2022-08-23T09:37:16;8.18;;;4.30;;
72037;SDS011;59900;50.788;12.904;2022-08-23T09:39:46;9.77;;;4.50;;
72037;SDS011;59900;50.788;12.904;2022-08-23T09:42:25;8.17;;;3.97;;
72037;SDS011;59900;50.788;12.904;2022-08-23T09:44:51;9.10;;;3.75;;
72037;SDS011;59900;50.788;12.904;2022-08-23T09:47:17;8.95;;;3.83;;
72037;SDS011;59900;50.788;12.904;2022-08-23T09:49:43;6.50;;;3.50;;
72037;SDS011;59900;50.788;12.904;2022-08-23T09:52:24;10.05;;;4.07;;
72037;SDS011;59900;50.788;12.904;2022-08-23T09:54:55;8.50;;;3.65;;
72037;SDS011;59900;50.788;12.904;2022-08-23T09:57:25;9.80;;;3.58;;
72037;SDS011;59900;50.788;12.904;2022-08-23T09:59:52;6.50;;;3.43;;
72037;SDS011;59900;50.788;12.904;2022-08-23T10:07:36;8.70;;;4.10;;
72037;SDS011;59900;50.788;12.904;2022-08-23T10:12:52;6.78;;;3.50;;
72037;SDS011;59900;50.788;12.904;2022-08-23T10:15:22;8.77;;;3.47;;
72037;SDS011;59900;50.788;12.904;2022-08-23T10:21:00;7.25;;;3.40;;
72037;SDS011;59900;50.788;12.904;2022-08-23T10:23:35;8.45;;;3.40;;
72037;SDS011;59900;50.788;12.904;2022-08-23T10:26:13;6.55;;;3.65;;
72037;SDS011;59900;50.788;12.904;2022-08-23T10:28:50;7.77;;;3.30;;
72037;SDS011;59900;50.788;12.904;2022-08-23T10:34:20;6.95;;;3.15;;
72037;SDS011;59900;50.788;12.904;2022-08-23T10:37:19;7.25;;;3.35;;
72037;SDS011;59900;50.788;12.904;2022-08-23T10:42:45;10.27;;;3.13;;
72037;SDS011;59900;50.788;12.904;2022-08-23T10:45:18;8.90;;;3.13;;
72037;SDS011;59900;50.788;12.904;2022-08-23T10:50:27;6.03;;;2.92;;
72037;SDS011;59900;50.788;12.904;2022-08-23T10:53:10;7.90;;;3.53;;
72037;SDS011;59900;50.788;12.904;2022-08-23T10:55:39;8.27;;;3.30;;
72037;SDS011;59900;50.788;12.904;2022-08-23T10:58:34;8.07;;;3.35;;
72037;SDS011;59900;50.788;12.904;2022-08-23T11:01:00;9.52;;;3.67;;
72037;SDS011;59900;50.788;12.904;2022-08-23T11:03:40;6.20;;;2.92;;
72037;SDS011;59900;50.788;12.904;2022-08-23T11:06:37;7.32;;;2.78;;
72037;SDS011;59900;50.788;12.904;2022-08-23T11:11:43;8.10;;;3.03;;
72037;SDS011;59900;50.788;12.904;2022-08-23T11:14:36;6.32;;;3.33;;
72037;SDS011;59900;50.788;12.904;2022-08-23T11:17:07;6.60;;;3.13;;
72037;SDS011;59900;50.788;12.904;2022-08-23T11:22:29;8.50;;;3.10;;
72037;SDS011;59900;50.788;12.904;2022-08-23T11:27:27;7.18;;;3.05;;
72037;SDS011;59900;50.788;12.904;2022-08-23T11:30:36;8.85;;;3.05;;
72037;SDS011;59900;50.788;12.904;2022-08-23T11:32:56;7.20;;;3.20;;
72037;SDS011;59900;50.788;12.904;2022-08-23T11:35:36;8.60;;;3.00;;
72037;SDS011;59900;50.788;12.904;2022-08-23T11:38:05;8.73;;;3.13;;
72037;SDS011;59900;50.788;12.904;2022-08-23T11:40:41;6.05;;;3.10;;
72037;SDS011;59900;50.788;12.904;2022-08-23T11:43:24;7.40;;;3.20;;
72037;SDS011;59900;50.788;12.904;2022-08-23T11:45:53;7.37;;;3.37;;
72037;SDS011;59900;50.788;12.904;2022-08-23T11:48:38;9.02;;;3.85;;
72037;SDS011;59900;50.788;12.904;2022-08-23T11:51:08;8.65;;;3.90;;
72037;SDS011;59900;50.788;12.904;2022-08-23T11:59:18;8.10;;;4.30;;
72037;SDS011;59900;50.788;12.904;2022-08-23T12:01:44;6.95;;;4.13;;
72037;SDS011;59900;50.788;12.904;2022-08-23T12:04:11;7.33;;;3.67;;
72037;SDS011;59900;50.788;12.904;2022-08-23T12:07:02;7.67;;;3.60;;
72037;SDS011;59900;50.788;12.904;2022-08-23T12:12:06;8.88;;;4.30;;
72037;SDS011;59900;50.788;12.904;2022-08-23T12:14:35;9.68;;;4.28;;
72037;SDS011;59900;50.788;12.904;2022-08-23T12:17:05;10.40;;;4.28;;
72037;SDS011;59900;50.788;12.904;2022-08-23T12:19:51;8.50;;;4.57;;
72037;SDS011;59900;50.788;12.904;2022-08-23T12:22:23;8.70;;;4.32;;
72037;SDS011;59900;50.788;12.904;2022-08-23T12:24:53;8.38;;;4.20;;
72037;SDS011;59900;50.788;12.904;2022-08-23T12:30:08;10.45;;;4.13;;
72037;SDS011;59900;50.788;12.904;2022-08-23T12:40:52;9.02;;;4.53;;
72037;SDS011;59900;50.788;12.904;2022-08-23T12:43:20;10.05;;;4.63;;
72037;SDS011;59900;50.788;12.904;2022-08-23T12:45:55;8.23;;;4.33;;
72037;SDS011;59900;50.788;12.904;2022-08-23T12:48:24;8.65;;;4.18;;
72037;SDS011;59900;50.788;12.904;2022-08-23T12:50:55;6.75;;;4.10;;
72037;SDS011;59900;50.788;12.904;2022-08-23T12:53:36;9.13;;;4.80;;
72037;SDS011;59900;50.788;12.904;2022-08-23T12:56:05;10.13;;;4.45;;
72037;SDS011;59900;50.788;12.904;2022-08-23T12:58:36;7.00;;;4.33;;
72037;SDS011;59900;50.788;12.904;2022-08-23T13:01:06;7.97;;;3.97;;
72037;SDS011;59900;50.788;12.904;2022-08-23T13:03:43;9.82;;;4.00;;
72037;SDS011;59900;50.788;12.904;2022-08-23T13:06:13;10.80;;;4.25;;
72037;SDS011;59900;50.788;12.904;2022-08-23T13:08:51;8.70;;;3.78;;
72037;SDS011;59900;50.788;12.904;2022-08-23T13:11:24;7.40;;;4.17;;
72037;SDS011;59900;50.788;12.904;2022-08-23T13:13:53;9.30;;;3.53;;
72037;SDS011;59900;50.788;12.904;2022-08-23T13:19:09;10.65;;;3.72;;
72037;SDS011;59900;50.788;12.904;2022-08-23T13:22:07;8.85;;;3.70;;
72037;SDS011;59900;50.788;12.904;2022-08-23T13:24:43;7.60;;;3.67;;
72037;SDS011;59900;50.788;12.904;2022-08-23T13:27:15;7.82;;;3.97;;
72037;SDS011;59900;50.788;12.904;2022-08-23T13:29:56;8.48;;;3.83;;
72037;SDS011;59900;50.788;12.904;2022-08-23T13:35:24;7.22;;;3.78;;
72037;SDS011;59900;50.788;12.904;2022-08-23T13:37:57;6.43;;;3.73;;
72037;SDS011;59900;50.788;12.904;2022-08-23T13:40:27;7.45;;;3.47;;
72037;SDS011;59900;50.788;12.904;2022-08-23T13:42:59;5.85;;;3.58;;
72037;SDS011;59900;50.788;12.904;2022-08-23T13:45:32;5.97;;;3.72;;
72037;SDS011;59900;50.788;12.904;2022-08-23T13:48:17;6.88;;;3.92;;
72037;SDS011;59900;50.788;12.904;2022-08-23T13:50:44;8.27;;;4.00;;
72037;SDS011;59900;50.788;12.904;2022-08-23T13:53:10;7.13;;;3.70;;
72037;SDS011;59900;50.788;12.904;2022-08-23T13:55:44;7.43;;;3.00;;
72037;SDS011;59900;50.788;12.904;2022-08-23T13:58:13;9.70;;;4.30;;
72037;SDS011;59900;50.788;12.904;2022-08-23T14:00:48;6.35;;;3.72;;
72037;SDS011;59900;50.788;12.904;2022-08-23T14:03:13;8.63;;;3.63;;
72037;SDS011;59900;50.788;12.904;2022-08-23T14:05:38;8.23;;;3.53;;
72037;SDS011;59900;50.788;12.904;2022-08-23T14:08:04;8.37;;;3.00;;
72037;SDS011;59900;50.788;12.904;2022-08-23T14:10:29;7.63;;;3.80;;
72037;SDS011;59900;50.788;12.904;2022-08-23T14:12:54;7.27;;;2.90;;
72037;SDS011;59900;50.788;12.904;2022-08-23T14:15:20;6.65;;;3.28;;
72037;SDS011;59900;50.788;12.904;2022-08-23T14:17:46;6.27;;;3.40;;
72037;SDS011;59900;50.788;12.904;2022-08-23T14:20:15;10.20;;;3.40;;
72037;SDS011;59900;50.788;12.904;2022-08-23T14:22:42;7.60;;;3.40;;
72037;SDS011;59900;50.788;12.904;2022-08-23T14:25:08;11.00;;;3.63;;
72037;SDS011;59900;50.788;12.904;2022-08-23T14:27:34;7.50;;;2.90;;
72037;SDS011;59900;50.788;12.904;2022-08-23T14:30:04;6.80;;;3.15;;
72037;SDS011;59900;50.788;12.904;2022-08-23T14:32:30;10.40;;;3.07;;
72037;SDS011;59900;50.788;12.904;2022-08-23T14:34:56;6.68;;;2.92;;
72037;SDS011;59900;50.788;12.904;2022-08-23T14:37:21;6.37;;;3.00;;
72037;SDS011;59900;50.788;12.904;2022-08-23T14:39:46;7.37;;;3.00;;
72037;SDS011;59900;50.788;12.904;2022-08-23T14:42:12;7.77;;;3.93;;
72037;SDS011;59900;50.788;12.904;2022-08-23T14:44:40;7.00;;;2.83;;
72037;SDS011;59900;50.788;12.904;2022-08-23T14:47:06;8.07;;;2.97;;
72037;SDS011;59900;50.788;12.904;2022-08-23T14:49:31;10.80;;;3.53;;
72037;SDS011;59900;50.788;12.904;2022-08-23T14:51:57;7.05;;;3.13;;
72037;SDS011;59900;50.788;12.904;2022-08-23T14:54:23;10.93;;;2.80;;
72037;SDS011;59900;50.788;12.904;2022-08-23T14:56:50;6.22;;;2.90;;
72037;SDS011;59900;50.788;12.904;2022-08-23T14:59:22;6.38;;;2.95;;
72037;SDS011;59900;50.788;12.904;2022-08-23T15:05:00;6.20;;;2.67;;
72037;SDS011;59900;50.788;12.904;2022-08-23T15:07:25;5.77;;;3.07;;
72037;SDS011;59900;50.788;12.904;2022-08-23T15:09:51;6.80;;;3.10;;
72037;SDS011;59900;50.788;12.904;2022-08-23T15:12:21;6.55;;;2.90;;
72037;SDS011;59900;50.788;12.904;2022-08-23T15:14:46;7.00;;;2.72;;
72037;SDS011;59900;50.788;12.904;2022-08-23T15:17:12;8.33;;;3.70;;
72037;SDS011;59900;50.788;12.904;2022-08-23T15:19:37;6.07;;;2.77;;
72037;SDS011;59900;50.788;12.904;2022-08-23T15:22:03;7.63;;;3.07;;
72037;SDS011;59900;50.788;12.904;2022-08-23T15:24:28;8.27;;;2.70;;
72037;SDS011;59900;50.788;12.904;2022-08-23T15:26:54;7.93;;;2.90;;
72037;SDS011;59900;50.788;12.904;2022-08-23T15:29:23;7.25;;;3.15;;
72037;SDS011;59900;50.788;12.904;2022-08-23T15:31:49;5.65;;;2.60;;
72037;SDS011;59900;50.788;12.904;2022-08-23T15:34:14;7.57;;;3.40;;
72037;SDS011;59900;50.788;12.904;2022-08-23T15:36:40;7.80;;;2.57;;
72037;SDS011;59900;50.788;12.904;2022-08-23T15:39:06;6.10;;;2.60;;
72037;SDS011;59900;50.788;12.904;2022-08-23T15:41:31;5.17;;;2.80;;
72037;SDS011;59900;50.788;12.904;2022-08-23T15:43:56;7.00;;;2.80;;
72037;SDS011;59900;50.788;12.904;2022-08-23T15:46:22;6.97;;;2.47;;
72037;SDS011;59900;50.788;12.904;2022-08-23T15:49:10;5.35;;;2.63;;
72037;SDS011;59900;50.788;12.904;2022-08-23T15:51:37;7.53;;;2.67;;